createdAt,value
2022-09-28T00:00:48.695Z,98812.03
2022-09-28T00:03:22.709Z,98814.09
2022-09-28T00:06:02.679Z,98814.59
2022-09-28T00:08:36.769Z,98814.03
2022-09-28T00:11:15.617Z,98815.28
2022-09-28T00:13:51.409Z,98819.94
2022-09-28T00:16:27.440Z,98824.22
2022-09-28T00:19:01.935Z,98817.25
2022-09-28T00:21:37.525Z,98809.13
2022-09-28T00:24:15.447Z,98813.75
2022-09-28T00:26:52.574Z,98806.50
2022-09-28T00:29:28.496Z,98801.91
2022-09-28T00:32:04.464Z,98807.88
2022-09-28T00:34:40.349Z,98801.03
2022-09-28T00:37:15.384Z,98807.22
2022-09-28T00:39:49.776Z,98812.44
2022-09-28T00:42:26.473Z,98809.59
2022-09-28T00:45:00.597Z,98806.50
2022-09-28T00:47:49.693Z,98813.84
2022-09-28T00:50:28.109Z,98809.19
2022-09-28T00:53:06.347Z,98816.53
2022-09-28T00:55:44.877Z,98812.88
2022-09-28T00:58:24.368Z,98809.38
2022-09-28T01:01:00.841Z,98813.56
2022-09-28T01:03:34.370Z,98811.38
2022-09-28T01:06:09.868Z,98812.97
2022-09-28T01:08:44.666Z,98813.00
2022-09-28T01:11:18.273Z,98817.84
2022-09-28T01:13:57.708Z,98812.44
2022-09-28T01:16:43.340Z,98819.09
2022-09-28T01:19:39.363Z,98796.84
2022-09-28T01:22:27.907Z,98808.66
2022-09-28T01:25:12.170Z,98808.94
2022-09-28T01:27:53.302Z,98813.78
2022-09-28T01:30:26.690Z,98810.50
2022-09-28T01:33:07.247Z,98809.84
2022-09-28T01:35:44.964Z,98806.78
2022-09-28T01:38:22.008Z,98802.03
2022-09-28T01:40:57.259Z,98815.00
2022-09-28T01:43:35.637Z,98814.16
2022-09-28T01:46:14.906Z,98811.22
2022-09-28T01:48:53.931Z,98811.31
2022-09-28T01:51:37.382Z,98807.25
2022-09-28T01:54:15.984Z,98807.06
2022-09-28T01:56:55.802Z,98805.09
2022-09-28T01:59:33.429Z,98805.59
2022-09-28T02:02:11.111Z,98802.28
2022-09-28T02:04:48.854Z,98797.66
2022-09-28T02:07:27.417Z,98801.66
2022-09-28T02:10:05.076Z,98805.25
2022-09-28T02:12:43.164Z,98793.63
2022-09-28T02:15:22.423Z,98793.44
2022-09-28T02:17:56.852Z,98796.69
2022-09-28T02:20:33.242Z,98798.81
2022-09-28T02:23:06.132Z,98794.00
2022-09-28T02:25:43.200Z,98795.28
2022-09-28T02:28:16.013Z,98798.53
2022-09-28T02:30:50.349Z,98793.06
2022-09-28T02:33:29.402Z,98802.63
2022-09-28T02:36:05.263Z,98794.53
2022-09-28T02:38:39.096Z,98804.53
2022-09-28T02:41:28.546Z,98799.16
2022-09-28T02:44:15.436Z,98796.13
2022-09-28T02:46:58.325Z,98794.72
2022-09-28T02:49:39.323Z,98798.00
2022-09-28T02:52:35.629Z,98799.84
2022-09-28T02:55:20.093Z,98802.34
2022-09-28T02:58:14.848Z,98809.78
2022-09-28T03:00:59.058Z,98802.47
2022-09-28T03:03:42.987Z,98806.47
2022-09-28T03:06:21.233Z,98805.44
2022-09-28T03:09:02.193Z,98811.19
2022-09-28T03:11:41.554Z,98813.00
2022-09-28T03:14:15.482Z,98807.41
2022-09-28T03:16:48.746Z,98810.09
2022-09-28T03:19:25.991Z,98807.41
2022-09-28T03:22:00.236Z,98812.13
2022-09-28T03:24:33.070Z,98808.44
2022-09-28T03:27:05.816Z,98806.38
2022-09-28T03:29:38.633Z,98805.19
2022-09-28T03:32:12.362Z,98800.91
2022-09-28T03:34:47.567Z,98801.94
2022-09-28T03:37:20.388Z,98802.00
2022-09-28T03:39:54.203Z,98805.66
2022-09-28T03:42:27.018Z,98812.31
2022-09-28T03:44:59.863Z,98817.50
2022-09-28T03:47:33.887Z,98817.16
2022-09-28T03:50:10.380Z,98825.78
2022-09-28T03:52:43.678Z,98814.81
2022-09-28T03:55:16.751Z,98811.00
2022-09-28T03:57:55.966Z,98818.72
2022-09-28T04:00:28.866Z,98812.63
2022-09-28T04:03:01.766Z,98823.00
2022-09-28T04:05:37.336Z,98824.69
2022-09-28T04:08:10.300Z,98826.44
2022-09-28T04:10:43.126Z,98833.22
2022-09-28T04:13:16.059Z,98823.28
2022-09-28T04:15:53.931Z,98828.47
2022-09-28T04:18:27.338Z,98829.78
2022-09-28T04:21:06.878Z,98824.03
2022-09-28T04:23:41.016Z,98835.09
2022-09-28T04:26:17.646Z,98836.03
2022-09-28T04:29:08.416Z,98848.59
2022-09-28T04:31:43.861Z,98844.00
2022-09-28T04:34:18.850Z,98850.78
2022-09-28T04:36:53.028Z,98860.38
2022-09-28T04:39:26.136Z,98846.16
2022-09-28T04:41:58.971Z,98844.94
2022-09-28T04:44:31.753Z,98844.66
2022-09-28T04:47:05.407Z,98846.69
2022-09-28T04:49:38.540Z,98850.59
2022-09-28T04:52:18.049Z,98849.22
2022-09-28T04:54:52.155Z,98855.38
2022-09-28T04:57:26.013Z,98855.44
2022-09-28T04:59:58.748Z,98857.09
2022-09-28T05:02:32.742Z,98855.44
2022-09-28T05:05:06.279Z,98853.81
2022-09-28T05:07:41.904Z,98857.81
2022-09-28T05:10:14.872Z,98847.75
2022-09-28T05:12:48.709Z,98849.84
2022-09-28T05:15:22.226Z,98846.00
2022-09-28T05:17:55.836Z,98851.84
2022-09-28T05:20:29.343Z,98848.50
2022-09-28T05:23:04.624Z,98850.84
2022-09-28T05:25:38.403Z,98847.22
2022-09-28T05:28:12.295Z,98853.06
2022-09-28T05:30:46.241Z,98866.44
2022-09-28T05:33:20.192Z,98857.56
2022-09-28T05:35:56.877Z,98860.22
2022-09-28T05:38:34.287Z,98856.78
2022-09-28T05:41:07.466Z,98847.72
2022-09-28T05:43:40.390Z,98857.31
2022-09-28T05:46:13.260Z,98854.72
2022-09-28T05:48:46.595Z,98860.38
2022-09-28T05:51:19.561Z,98862.44
2022-09-28T05:53:55.452Z,98857.72
2022-09-28T05:56:31.243Z,98857.72
2022-09-28T05:59:05.631Z,98860.19
2022-09-28T06:01:38.971Z,98857.34
2022-09-28T06:04:11.870Z,98866.75
2022-09-28T06:06:44.676Z,98860.25
2022-09-28T06:09:21.672Z,98868.78
2022-09-28T06:11:59.421Z,98878.47
2022-09-28T06:14:33.092Z,98876.25
2022-09-28T06:17:06.268Z,98877.34
2022-09-28T06:19:40.840Z,98878.00
2022-09-28T06:22:13.693Z,98872.97
2022-09-28T06:24:49.068Z,98878.66
2022-09-28T06:27:22.720Z,98870.56
2022-09-28T06:29:56.482Z,98878.69
2022-09-28T06:32:30.309Z,98882.31
2022-09-28T06:35:04.143Z,98876.16
2022-09-28T06:37:38.030Z,98882.66
2022-09-28T06:40:12.398Z,98881.81
2022-09-28T06:42:45.286Z,98890.97
2022-09-28T06:45:21.862Z,98888.81
2022-09-28T06:47:56.841Z,98890.41
2022-09-28T06:50:32.679Z,98900.91
2022-09-28T06:53:07.244Z,98901.03
2022-09-28T06:55:42.226Z,98904.38
2022-09-28T06:58:18.096Z,98918.78
2022-09-28T07:00:53.520Z,98912.34
2022-09-28T07:03:26.986Z,98914.06
2022-09-28T07:05:59.917Z,98916.31
2022-09-28T07:08:32.991Z,98910.34
2022-09-28T07:11:09.994Z,98910.88
2022-09-28T07:13:50.417Z,98918.69
2022-09-28T07:16:27.256Z,98917.13
2022-09-28T07:19:03.676Z,98922.22
2022-09-28T07:21:37.815Z,98916.41
2022-09-28T07:24:14.380Z,98925.94
2022-09-28T07:26:48.648Z,98930.03
2022-09-28T07:29:21.455Z,98927.47
2022-09-28T07:31:55.848Z,98929.53
2022-09-28T07:34:29.779Z,98929.22
2022-09-28T07:37:02.751Z,98928.00
2022-09-28T07:39:56.291Z,98921.56
2022-09-28T07:42:30.925Z,98932.41
2022-09-28T07:45:04.751Z,98930.25
2022-09-28T07:47:37.735Z,98935.78
2022-09-28T07:50:12.070Z,98940.22
2022-09-28T07:52:45.935Z,98941.13
2022-09-28T07:55:18.776Z,98939.03
2022-09-28T07:58:01.459Z,98947.41
2022-09-28T08:00:35.164Z,98944.22
2022-09-28T08:03:08.811Z,98939.25
2022-09-28T08:05:42.871Z,98947.97
2022-09-28T08:08:15.997Z,98950.44
2022-09-28T08:10:48.816Z,98947.94
2022-09-28T08:13:27.012Z,98959.41
2022-09-28T08:16:03.192Z,98957.97
2022-09-28T08:18:37.082Z,98965.53
2022-09-28T08:21:29.129Z,98953.88
2022-09-28T08:24:02.337Z,98963.63
2022-09-28T08:26:35.363Z,98961.31
2022-09-28T08:29:11.110Z,98963.44
2022-09-28T08:31:43.958Z,98970.19
2022-09-28T08:34:17.820Z,98966.84
2022-09-28T08:36:51.494Z,98972.47
2022-09-28T08:39:24.943Z,98973.69
2022-09-28T08:42:09.093Z,98977.19
2022-09-28T08:44:47.566Z,98985.75
2022-09-28T08:47:43.508Z,98982.25
2022-09-28T08:50:20.190Z,98976.66
2022-09-28T08:53:00.274Z,98988.06
2022-09-28T08:55:37.357Z,98994.22
2022-09-28T08:58:14.797Z,98984.50
2022-09-28T09:00:52.390Z,98983.47
2022-09-28T09:03:33.107Z,98970.22
2022-09-28T09:06:18.572Z,98983.72
2022-09-28T09:09:04.838Z,98984.84
2022-09-28T09:11:53.451Z,98984.00
2022-09-28T09:14:56.292Z,98981.91
2022-09-28T09:17:45.230Z,98979.84
2022-09-28T09:20:26.199Z,98969.84
2022-09-28T09:23:01.292Z,98975.56
2022-09-28T09:25:43.811Z,98985.41
2022-09-28T09:28:48.003Z,98975.06
2022-09-28T09:31:31.943Z,98975.09
2022-09-28T09:34:33.512Z,98978.50
2022-09-28T09:37:19.861Z,98975.75
2022-09-28T09:40:09.592Z,98983.53
2022-09-28T09:42:55.654Z,98976.88
2022-09-28T09:45:44.443Z,98972.00
2022-09-28T09:48:25.244Z,98977.47
2022-09-28T09:51:04.831Z,98974.97
2022-09-28T09:53:43.338Z,98971.81
2022-09-28T09:56:22.485Z,98975.66
2022-09-28T09:59:03.385Z,98974.47
2022-09-28T10:01:40.911Z,98980.75
2022-09-28T10:04:20.725Z,98968.94
2022-09-28T10:07:04.087Z,98977.78
2022-09-28T10:09:42.904Z,98976.50
2022-09-28T10:12:20.663Z,98975.28
2022-09-28T10:14:56.092Z,98970.84
2022-09-28T10:17:29.823Z,98969.09
2022-09-28T10:20:05.239Z,98970.88
2022-09-28T10:22:40.297Z,98971.19
2022-09-28T10:25:15.345Z,98968.00
2022-09-28T10:27:52.704Z,98964.44
2022-09-28T10:30:27.289Z,98964.75
2022-09-28T10:33:01.795Z,98968.81
2022-09-28T10:35:43.381Z,98966.44
2022-09-28T10:38:20.447Z,98962.03
2022-09-28T10:40:55.791Z,98973.75
2022-09-28T10:43:33.536Z,98972.78
2022-09-28T10:46:09.454Z,98966.75
2022-09-28T10:48:52.259Z,98963.81
2022-09-28T10:51:43.794Z,98953.34
2022-09-28T10:54:21.455Z,98955.59
2022-09-28T10:56:56.258Z,98957.69
2022-09-28T10:59:42.277Z,98957.16
2022-09-28T11:02:22.833Z,98948.16
2022-09-28T11:04:58.799Z,98949.94
2022-09-28T11:07:33.486Z,98951.97
2022-09-28T11:10:22.298Z,98943.09
2022-09-28T11:12:56.335Z,98946.06
2022-09-28T11:15:33.917Z,98946.06
2022-09-28T11:18:29.519Z,98943.44
2022-09-28T11:21:13.138Z,98941.41
2022-09-28T11:24:07.058Z,98945.59
2022-09-28T11:26:43.995Z,98943.50
2022-09-28T11:29:23.743Z,98948.50
2022-09-28T11:32:03.650Z,98942.59
2022-09-28T11:34:58.041Z,98953.03
2022-09-28T11:37:49.979Z,98948.66
2022-09-28T11:40:32.124Z,98946.28
2022-09-28T11:43:20.656Z,98943.19
2022-09-28T11:46:02.533Z,98938.16
2022-09-28T11:48:48.005Z,98941.56
2022-09-28T11:51:26.083Z,98947.44
2022-09-28T11:54:10.524Z,98940.59
2022-09-28T11:56:47.272Z,98932.13
2022-09-28T11:59:28.569Z,98940.00
2022-09-28T12:02:14.134Z,98929.03
2022-09-28T12:04:53.310Z,98924.28
2022-09-28T12:07:31.448Z,98922.22
2022-09-28T12:10:13.172Z,98926.44
2022-09-28T12:12:51.191Z,98926.41
2022-09-28T12:15:35.003Z,98931.75
2022-09-28T12:18:25.906Z,98923.47
2022-09-28T12:21:19.127Z,98926.19
2022-09-28T12:23:57.665Z,98922.53
2022-09-28T12:26:48.312Z,98916.59
2022-09-28T12:29:28.123Z,98921.81
2022-09-28T12:32:10.679Z,98912.66
2022-09-28T12:34:44.028Z,98919.19
2022-09-28T12:37:28.839Z,98908.25
2022-09-28T12:40:36.818Z,98908.22
2022-09-28T12:43:40.749Z,98899.25
2022-09-28T12:46:50.342Z,98902.94
2022-09-28T12:50:33.273Z,98899.41
2022-09-28T12:52:43.437Z,98906.69
2022-09-28T12:55:31.581Z,98908.88
2022-09-28T12:58:23.021Z,98896.88
2022-09-28T13:01:07.756Z,98897.69
2022-09-28T13:04:04.433Z,98888.06
2022-09-28T13:06:52.984Z,98887.44
2022-09-28T13:09:27.640Z,98879.81
2022-09-28T13:12:30.096Z,98873.16
2022-09-28T13:15:32.072Z,98874.88
2022-09-28T13:18:12.041Z,98876.22
2022-09-28T13:20:54.103Z,98877.22
2022-09-28T13:23:31.081Z,98879.44
2022-09-28T13:26:14.527Z,98881.03
2022-09-28T13:28:51.645Z,98877.78
2022-09-28T13:31:33.153Z,98882.19
2022-09-28T13:34:14.917Z,98876.94
2022-09-28T13:37:07.997Z,98876.72
2022-09-28T13:39:52.795Z,98879.22
2022-09-28T13:42:52.535Z,98870.06
2022-09-28T13:45:51.525Z,98877.97
2022-09-28T13:48:42.739Z,98881.78
2022-09-28T13:51:32.725Z,98877.94
2022-09-28T13:54:31.455Z,98874.34
2022-09-28T13:57:19.683Z,98875.47
2022-09-28T14:00:03.674Z,98875.66
2022-09-28T14:02:44.056Z,98877.50
2022-09-28T14:06:10.971Z,98863.81
2022-09-28T14:08:57.166Z,98869.28
2022-09-28T14:11:57.880Z,98859.00
2022-09-28T14:14:48.636Z,98867.34
2022-09-28T14:17:55.195Z,98867.00
2022-09-28T14:20:32.859Z,98869.47
2022-09-28T14:23:45.521Z,98865.22
2022-09-28T14:26:49.672Z,98874.06
2022-09-28T14:29:28.951Z,98872.50
2022-09-28T14:32:20.670Z,98869.78
2022-09-28T14:35:00.116Z,98872.03
2022-09-28T14:37:53.753Z,98870.06
2022-09-28T14:40:49.796Z,98865.38
2022-09-28T14:43:28.836Z,98866.09
2022-09-28T14:46:31.703Z,98862.63
2022-09-28T14:49:27.679Z,98863.16
2022-09-28T14:52:05.389Z,98869.78
2022-09-28T14:54:54.694Z,98868.03
2022-09-28T14:57:32.862Z,98871.59
2022-09-28T15:00:20.660Z,98863.44
2022-09-28T15:02:57.809Z,98864.97
2022-09-28T15:05:37.180Z,98868.09
2022-09-28T15:08:12.423Z,98865.63
2022-09-28T15:10:49.710Z,98863.56
2022-09-28T15:13:27.475Z,98866.28
2022-09-28T15:16:10.150Z,98870.00
2022-09-28T15:19:05.241Z,98874.25
2022-09-28T15:21:41.485Z,98866.16
2022-09-28T15:24:35.731Z,98873.31
2022-09-28T15:27:18.991Z,98873.69
2022-09-28T15:29:59.893Z,98876.44
2022-09-28T15:32:34.103Z,98873.59
2022-09-28T15:35:17.390Z,98875.34
2022-09-28T15:37:53.057Z,98881.09
2022-09-28T15:40:34.849Z,98867.28
2022-09-28T15:43:24.470Z,98873.28
2022-09-28T15:46:02.841Z,98880.72
2022-09-28T15:48:52.318Z,98877.38
2022-09-28T15:51:27.732Z,98874.28
2022-09-28T15:54:05.246Z,98871.22
2022-09-28T15:56:53.857Z,98877.28
2022-09-28T15:59:35.172Z,98866.13
2022-09-28T16:02:14.519Z,98876.34
2022-09-28T16:04:52.152Z,98869.09
2022-09-28T16:07:30.539Z,98861.16
2022-09-28T16:10:07.205Z,98861.63
2022-09-28T16:12:46.642Z,98861.63
2022-09-28T16:15:23.998Z,98858.66
2022-09-28T16:18:02.874Z,98860.09
2022-09-28T16:20:40.633Z,98855.56
2022-09-28T16:23:22.432Z,98862.56
2022-09-28T16:26:00.501Z,98855.09
2022-09-28T16:28:52.166Z,98857.94
2022-09-28T16:31:35.358Z,98854.25
2022-09-28T16:34:21.406Z,98863.84
2022-09-28T16:36:55.694Z,98859.97
2022-09-28T16:39:30.213Z,98854.97
2022-09-28T16:42:15.857Z,98858.25
2022-09-28T16:44:49.416Z,98860.06
2022-09-28T16:47:23.143Z,98858.16
2022-09-28T16:49:56.634Z,98856.13
2022-09-28T16:52:48.246Z,98861.81
2022-09-28T16:55:40.405Z,98853.91
2022-09-28T16:58:14.743Z,98861.75
2022-09-28T17:00:48.260Z,98853.34
2022-09-28T17:03:23.803Z,98865.44
2022-09-28T17:05:57.309Z,98858.59
2022-09-28T17:08:33.293Z,98858.50
2022-09-28T17:11:15.744Z,98863.97
2022-09-28T17:13:52.214Z,98868.34
2022-09-28T17:17:06.181Z,98871.84
2022-09-28T17:19:26.127Z,98872.81
2022-09-28T17:21:59.569Z,98865.91
2022-09-28T17:24:33.804Z,98863.78
2022-09-28T17:27:08.571Z,98866.16
2022-09-28T17:29:42.287Z,98862.97
2022-09-28T17:32:19.354Z,98868.13
2022-09-28T17:35:06.467Z,98863.88
2022-09-28T17:37:46.922Z,98860.56
2022-09-28T17:40:24.358Z,98857.91
2022-09-28T17:42:59.245Z,98858.75
2022-09-28T17:45:34.466Z,98853.28
2022-09-28T17:48:09.296Z,98850.09
2022-09-28T17:50:46.610Z,98857.66
2022-09-28T17:53:20.319Z,98851.41
2022-09-28T17:55:55.713Z,98849.84
2022-09-28T17:58:29.488Z,98853.13
2022-09-28T18:01:03.499Z,98854.66
2022-09-28T18:03:38.646Z,98857.75
2022-09-28T18:06:15.837Z,98852.66
2022-09-28T18:08:49.602Z,98853.41
2022-09-28T18:11:25.298Z,98853.72
2022-09-28T18:13:59.246Z,98847.91
2022-09-28T18:16:33.075Z,98848.03
2022-09-28T18:19:06.889Z,98853.94
2022-09-28T18:21:40.671Z,98851.06
2022-09-28T18:24:14.300Z,98839.53
2022-09-28T18:26:48.706Z,98845.06
2022-09-28T18:29:21.551Z,98842.56
2022-09-28T18:31:55.519Z,98838.63
2022-09-28T18:34:29.230Z,98848.47
2022-09-28T18:37:03.680Z,98847.16
2022-09-28T18:39:37.405Z,98849.66
2022-09-28T18:42:12.735Z,98857.38
2022-09-28T18:44:45.726Z,98851.03
2022-09-28T18:47:19.247Z,98861.41
2022-09-28T18:49:52.047Z,98858.22
2022-09-28T18:52:25.743Z,98858.81
2022-09-28T18:54:58.567Z,98861.78
2022-09-28T18:57:33.877Z,98857.38
2022-09-28T19:00:10.414Z,98857.16
2022-09-28T19:02:44.020Z,98852.38
2022-09-28T19:05:17.023Z,98851.94
2022-09-28T19:07:50.867Z,98852.53
2022-09-28T19:10:25.272Z,98847.69
2022-09-28T19:13:00.648Z,98849.13
2022-09-28T19:15:34.934Z,98849.13
2022-09-28T19:18:08.072Z,98851.47
2022-09-28T19:20:41.691Z,98849.13
2022-09-28T19:23:15.354Z,98844.03
2022-09-28T19:25:48.932Z,98846.75
2022-09-28T19:28:23.309Z,98857.88
2022-09-28T19:33:40.407Z,98840.81
2022-09-28T19:36:16.839Z,98844.44
2022-09-28T19:38:51.793Z,98840.06
2022-09-28T19:41:44.601Z,98833.53
2022-09-28T19:44:29.451Z,98833.31
2022-09-28T19:47:07.320Z,98839.16
2022-09-28T19:49:42.204Z,98834.38
2022-09-28T19:52:17.333Z,98832.44
2022-09-28T19:54:56.545Z,98837.28
2022-09-28T19:57:32.858Z,98832.28
2022-09-28T20:00:10.146Z,98845.69
2022-09-28T20:02:43.899Z,98847.72
2022-09-28T20:05:17.152Z,98840.63
2022-09-28T20:07:50.392Z,98836.16
2022-09-28T20:10:24.425Z,98832.09
2022-09-28T20:12:59.202Z,98837.31
2022-09-28T20:15:37.364Z,98836.31
2022-09-28T20:18:12.362Z,98831.53
2022-09-28T20:20:46.242Z,98825.91
2022-09-28T20:23:21.470Z,98828.97
2022-09-28T20:25:54.308Z,98831.69
2022-09-28T20:28:28.160Z,98828.19
2022-09-28T20:31:05.628Z,98824.16
2022-09-28T20:33:39.709Z,98826.13
2022-09-28T20:36:13.881Z,98818.41
2022-09-28T20:38:49.459Z,98821.69
2022-09-28T20:41:25.046Z,98817.50
2022-09-28T20:44:04.883Z,98810.00
2022-09-28T20:46:40.147Z,98806.16
2022-09-28T20:49:14.136Z,98807.13
2022-09-28T20:51:47.991Z,98803.06
2022-09-28T20:54:22.533Z,98805.94
2022-09-28T20:56:55.460Z,98811.16
2022-09-28T20:59:29.230Z,98804.94
2022-09-28T21:02:04.603Z,98803.50
2022-09-28T21:04:38.205Z,98804.50
2022-09-28T21:07:12.327Z,98806.66
2022-09-28T21:09:45.868Z,98812.75
2022-09-28T21:12:19.706Z,98812.41
2022-09-28T21:14:53.608Z,98806.22
2022-09-28T21:17:28.864Z,98817.84
2022-09-28T21:20:02.608Z,98810.78
2022-09-28T21:22:35.493Z,98805.34
2022-09-28T21:25:09.711Z,98813.91
2022-09-28T21:30:44.237Z,98809.28
2022-09-28T21:33:19.249Z,98817.22
2022-09-28T21:35:53.182Z,98811.63
2022-09-28T21:38:26.951Z,98811.22
2022-09-28T21:41:01.299Z,98811.03
2022-09-28T21:43:34.918Z,98811.22
2022-09-28T21:46:08.793Z,98817.88
2022-09-28T21:48:43.876Z,98803.25
2022-09-28T21:51:17.542Z,98803.84
2022-09-28T21:53:51.176Z,98803.28
2022-09-28T21:56:25.038Z,98800.34
2022-09-28T21:58:58.635Z,98798.03
2022-09-28T22:01:32.386Z,98794.25
2022-09-28T22:04:07.440Z,98790.41
2022-09-28T22:06:41.474Z,98782.09
2022-09-28T22:09:15.331Z,98790.41
2022-09-28T22:11:49.966Z,98786.47
2022-09-28T22:14:23.496Z,98792.31
2022-09-28T22:16:57.127Z,98781.97
2022-09-28T22:19:32.165Z,98783.38
2022-09-28T22:22:05.917Z,98787.16
2022-09-28T22:24:39.440Z,98786.25
2022-09-28T22:27:12.374Z,98783.63
2022-09-28T22:29:45.145Z,98781.75
2022-09-28T22:32:18.985Z,98784.88
2022-09-28T22:34:54.348Z,98772.00
2022-09-28T22:37:28.078Z,98770.34
2022-09-28T22:40:02.202Z,98772.09
2022-09-28T22:42:35.904Z,98771.50
2022-09-28T22:45:10.156Z,98761.78
2022-09-28T22:47:43.747Z,98759.69
2022-09-28T22:50:18.678Z,98765.09
2022-09-28T22:52:52.322Z,98753.91
2022-09-28T22:55:25.942Z,98754.31
2022-09-28T22:57:59.646Z,98750.28
2022-09-28T23:00:33.374Z,98748.06
2022-09-28T23:03:07.643Z,98753.28
2022-09-28T23:05:41.837Z,98751.72
2022-09-28T23:08:15.645Z,98753.72
2022-09-28T23:10:49.279Z,98754.69
2022-09-28T23:13:23.680Z,98753.75
2022-09-28T23:15:58.440Z,98751.03
2022-09-28T23:18:33.970Z,98751.34
2022-09-28T23:21:12.209Z,98743.41
2022-09-28T23:23:46.235Z,98747.50
2022-09-28T23:26:21.376Z,98748.09
2022-09-28T23:28:55.777Z,98743.50
2022-09-28T23:31:31.608Z,98748.44
2022-09-28T23:34:07.336Z,98744.81
2022-09-28T23:36:41.928Z,98756.44
2022-09-28T23:39:15.579Z,98747.63
2022-09-28T23:41:49.131Z,98750.97
2022-09-28T23:44:22.808Z,98748.84
2022-09-28T23:46:56.635Z,98747.50
2022-09-28T23:49:30.166Z,98742.13
2022-09-28T23:52:05.333Z,98739.72
2022-09-28T23:54:38.986Z,98746.38
2022-09-28T23:57:12.265Z,98743.66
2022-09-28T23:59:45.951Z,98744.03
